sensor_id;sensor_type;location;lat;lon;timestamp;P1;durP1;ratioP1;P2;durP2;ratioP2
29916;SDS011;16786;49.466;11.068;2022-08-20T00:01:45;17.90;;;14.18;;
29916;SDS011;16786;49.466;11.068;2022-08-20T00:04:16;19.20;;;14.45;;
29916;SDS011;16786;49.466;11.068;2022-08-20T00:06:44;17.52;;;14.35;;
29916;SDS011;16786;49.466;11.068;2022-08-20T00:09:13;19.38;;;14.65;;
29916;SDS011;16786;49.466;11.068;2022-08-20T00:11:47;17.85;;;14.18;;
29916;SDS011;16786;49.466;11.068;2022-08-20T00:14:15;16.88;;;14.00;;
29916;SDS011;16786;49.466;11.068;2022-08-20T00:16:43;20.27;;;14.88;;
29916;SDS011;16786;49.466;11.068;2022-08-20T00:19:11;18.02;;;14.77;;
29916;SDS011;16786;49.466;11.068;2022-08-20T00:21:39;17.63;;;14.10;;
29916;SDS011;16786;49.466;11.068;2022-08-20T00:24:07;20.23;;;14.95;;
29916;SDS011;16786;49.466;11.068;2022-08-20T00:26:35;18.52;;;15.10;;
29916;SDS011;16786;49.466;11.068;2022-08-20T00:29:17;20.70;;;16.05;;
29916;SDS011;16786;49.466;11.068;2022-08-20T00:31:46;19.27;;;15.00;;
29916;SDS011;16786;49.466;11.068;2022-08-20T00:34:14;19.85;;;15.68;;
29916;SDS011;16786;49.466;11.068;2022-08-20T00:36:42;20.27;;;15.27;;
29916;SDS011;16786;49.466;11.068;2022-08-20T00:39:09;20.38;;;15.43;;
29916;SDS011;16786;49.466;11.068;2022-08-20T00:41:37;19.38;;;15.95;;
29916;SDS011;16786;49.466;11.068;2022-08-20T00:44:10;19.83;;;14.80;;
29916;SDS011;16786;49.466;11.068;2022-08-20T00:46:41;19.13;;;15.40;;
29916;SDS011;16786;49.466;11.068;2022-08-20T00:51:44;24.73;;;16.48;;
29916;SDS011;16786;49.466;11.068;2022-08-20T00:54:18;23.98;;;17.52;;
29916;SDS011;16786;49.466;11.068;2022-08-20T00:56:55;22.02;;;17.48;;
29916;SDS011;16786;49.466;11.068;2022-08-20T00:59:34;22.13;;;16.95;;
29916;SDS011;16786;49.466;11.068;2022-08-20T01:02:07;23.80;;;17.17;;
29916;SDS011;16786;49.466;11.068;2022-08-20T01:04:38;21.75;;;17.40;;
29916;SDS011;16786;49.466;11.068;2022-08-20T01:07:08;22.90;;;18.15;;
29916;SDS011;16786;49.466;11.068;2022-08-20T01:09:39;21.17;;;16.25;;
29916;SDS011;16786;49.466;11.068;2022-08-20T01:12:25;21.83;;;16.25;;
29916;SDS011;16786;49.466;11.068;2022-08-20T01:14:55;26.10;;;18.73;;
29916;SDS011;16786;49.466;11.068;2022-08-20T01:17:26;22.63;;;17.65;;
29916;SDS011;16786;49.466;11.068;2022-08-20T01:20:00;23.45;;;17.35;;
29916;SDS011;16786;49.466;11.068;2022-08-20T01:22:43;21.25;;;16.75;;
29916;SDS011;16786;49.466;11.068;2022-08-20T01:28:30;22.90;;;17.73;;
29916;SDS011;16786;49.466;11.068;2022-08-20T01:31:14;21.85;;;17.00;;
29916;SDS011;16786;49.466;11.068;2022-08-20T01:33:46;22.00;;;16.67;;
29916;SDS011;16786;49.466;11.068;2022-08-20T01:36:15;22.02;;;16.38;;
29916;SDS011;16786;49.466;11.068;2022-08-20T01:38:44;20.70;;;15.80;;
29916;SDS011;16786;49.466;11.068;2022-08-20T01:43:54;20.52;;;16.08;;
29916;SDS011;16786;49.466;11.068;2022-08-20T01:46:36;20.05;;;16.13;;
29916;SDS011;16786;49.466;11.068;2022-08-20T01:49:23;18.10;;;15.25;;
29916;SDS011;16786;49.466;11.068;2022-08-20T01:51:56;18.95;;;14.65;;
29916;SDS011;16786;49.466;11.068;2022-08-20T01:54:27;20.08;;;15.32;;
29916;SDS011;16786;49.466;11.068;2022-08-20T01:59:25;18.85;;;14.50;;
29916;SDS011;16786;49.466;11.068;2022-08-20T02:01:53;17.52;;;14.85;;
29916;SDS011;16786;49.466;11.068;2022-08-20T02:04:21;14.68;;;13.02;;
29916;SDS011;16786;49.466;11.068;2022-08-20T02:06:51;16.88;;;13.23;;
29916;SDS011;16786;49.466;11.068;2022-08-20T02:09:25;17.10;;;13.63;;
29916;SDS011;16786;49.466;11.068;2022-08-20T02:11:55;18.93;;;14.50;;
29916;SDS011;16786;49.466;11.068;2022-08-20T02:14:24;17.17;;;13.32;;
29916;SDS011;16786;49.466;11.068;2022-08-20T02:16:52;16.13;;;13.38;;
29916;SDS011;16786;49.466;11.068;2022-08-20T02:19:28;14.55;;;12.30;;
29916;SDS011;16786;49.466;11.068;2022-08-20T02:22:11;14.27;;;12.13;;
29916;SDS011;16786;49.466;11.068;2022-08-20T02:25:04;15.13;;;12.23;;
29916;SDS011;16786;49.466;11.068;2022-08-20T02:27:33;13.00;;;10.90;;
29916;SDS011;16786;49.466;11.068;2022-08-20T02:30:01;16.42;;;12.73;;
29916;SDS011;16786;49.466;11.068;2022-08-20T02:32:45;14.63;;;11.73;;
29916;SDS011;16786;49.466;11.068;2022-08-20T02:35:13;15.82;;;12.15;;
29916;SDS011;16786;49.466;11.068;2022-08-20T02:37:42;15.82;;;12.60;;
29916;SDS011;16786;49.466;11.068;2022-08-20T02:40:15;16.23;;;13.68;;
29916;SDS011;16786;49.466;11.068;2022-08-20T02:42:56;16.38;;;14.27;;
29916;SDS011;16786;49.466;11.068;2022-08-20T02:45:25;17.52;;;14.52;;
29916;SDS011;16786;49.466;11.068;2022-08-20T02:47:53;19.95;;;15.10;;
29916;SDS011;16786;49.466;11.068;2022-08-20T02:50:23;18.90;;;14.57;;
29916;SDS011;16786;49.466;11.068;2022-08-20T02:52:51;17.48;;;14.77;;
29916;SDS011;16786;49.466;11.068;2022-08-20T02:55:20;19.65;;;15.07;;
29916;SDS011;16786;49.466;11.068;2022-08-20T02:57:57;18.88;;;15.23;;
29916;SDS011;16786;49.466;11.068;2022-08-20T03:00:27;22.02;;;15.68;;
29916;SDS011;16786;49.466;11.068;2022-08-20T03:03:07;21.10;;;15.98;;
29916;SDS011;16786;49.466;11.068;2022-08-20T03:05:37;19.88;;;15.75;;
29916;SDS011;16786;49.466;11.068;2022-08-20T03:08:06;21.83;;;15.60;;
29916;SDS011;16786;49.466;11.068;2022-08-20T03:10:37;20.83;;;15.55;;
29916;SDS011;16786;49.466;11.068;2022-08-20T03:13:06;21.00;;;15.23;;
29916;SDS011;16786;49.466;11.068;2022-08-20T03:15:39;21.73;;;16.13;;
29916;SDS011;16786;49.466;11.068;2022-08-20T03:18:09;21.23;;;16.13;;
29916;SDS011;16786;49.466;11.068;2022-08-20T03:20:37;21.88;;;16.25;;
29916;SDS011;16786;49.466;11.068;2022-08-20T03:23:05;19.85;;;15.75;;
29916;SDS011;16786;49.466;11.068;2022-08-20T03:25:32;21.10;;;16.10;;
29916;SDS011;16786;49.466;11.068;2022-08-20T03:28:00;21.85;;;15.77;;
29916;SDS011;16786;49.466;11.068;2022-08-20T03:30:28;18.92;;;15.07;;
29916;SDS011;16786;49.466;11.068;2022-08-20T03:32:56;19.20;;;15.48;;
29916;SDS011;16786;49.466;11.068;2022-08-20T03:35:24;22.10;;;15.48;;
29916;SDS011;16786;49.466;11.068;2022-08-20T03:37:52;22.27;;;16.02;;
29916;SDS011;16786;49.466;11.068;2022-08-20T03:40:25;18.20;;;15.13;;
29916;SDS011;16786;49.466;11.068;2022-08-20T03:42:56;18.48;;;14.60;;
29916;SDS011;16786;49.466;11.068;2022-08-20T03:45:25;19.38;;;15.35;;
29916;SDS011;16786;49.466;11.068;2022-08-20T03:47:53;18.38;;;15.77;;
29916;SDS011;16786;49.466;11.068;2022-08-20T03:50:23;19.58;;;15.70;;
29916;SDS011;16786;49.466;11.068;2022-08-20T03:52:53;20.98;;;15.88;;
29916;SDS011;16786;49.466;11.068;2022-08-20T03:55:21;23.00;;;16.38;;
29916;SDS011;16786;49.466;11.068;2022-08-20T03:57:51;20.10;;;16.27;;
29916;SDS011;16786;49.466;11.068;2022-08-20T04:00:23;19.65;;;16.23;;
29916;SDS011;16786;49.466;11.068;2022-08-20T04:02:53;23.30;;;16.98;;
29916;SDS011;16786;49.466;11.068;2022-08-20T04:05:23;20.75;;;17.00;;
29916;SDS011;16786;49.466;11.068;2022-08-20T04:07:54;21.33;;;15.80;;
29916;SDS011;16786;49.466;11.068;2022-08-20T04:10:29;20.20;;;16.17;;
29916;SDS011;16786;49.466;11.068;2022-08-20T04:12:57;21.67;;;16.60;;
29916;SDS011;16786;49.466;11.068;2022-08-20T04:15:27;25.75;;;17.08;;
29916;SDS011;16786;49.466;11.068;2022-08-20T04:17:54;21.38;;;17.15;;
29916;SDS011;16786;49.466;11.068;2022-08-20T04:20:22;23.00;;;17.50;;
29916;SDS011;16786;49.466;11.068;2022-08-20T04:22:52;19.77;;;15.73;;
29916;SDS011;16786;49.466;11.068;2022-08-20T04:25:25;18.52;;;15.40;;
29916;SDS011;16786;49.466;11.068;2022-08-20T04:27:56;19.80;;;15.73;;
29916;SDS011;16786;49.466;11.068;2022-08-20T04:30:24;21.65;;;16.95;;
29916;SDS011;16786;49.466;11.068;2022-08-20T04:32:53;21.90;;;16.73;;
29916;SDS011;16786;49.466;11.068;2022-08-20T04:35:22;17.88;;;15.27;;
29916;SDS011;16786;49.466;11.068;2022-08-20T04:38:02;20.05;;;15.82;;
29916;SDS011;16786;49.466;11.068;2022-08-20T04:40:32;20.65;;;16.60;;
29916;SDS011;16786;49.466;11.068;2022-08-20T04:43:24;23.00;;;16.77;;
29916;SDS011;16786;49.466;11.068;2022-08-20T04:45:52;20.33;;;14.70;;
29916;SDS011;16786;49.466;11.068;2022-08-20T04:48:21;20.60;;;15.98;;
29916;SDS011;16786;49.466;11.068;2022-08-20T04:50:50;17.83;;;14.35;;
29916;SDS011;16786;49.466;11.068;2022-08-20T04:53:20;22.27;;;16.80;;
29916;SDS011;16786;49.466;11.068;2022-08-20T04:55:52;19.88;;;15.52;;
29916;SDS011;16786;49.466;11.068;2022-08-20T04:58:22;21.67;;;17.55;;
29916;SDS011;16786;49.466;11.068;2022-08-20T05:03:26;20.38;;;15.88;;
29916;SDS011;16786;49.466;11.068;2022-08-20T05:05:54;20.02;;;16.73;;
29916;SDS011;16786;49.466;11.068;2022-08-20T05:08:23;23.65;;;18.33;;
29916;SDS011;16786;49.466;11.068;2022-08-20T05:10:51;22.15;;;17.88;;
29916;SDS011;16786;49.466;11.068;2022-08-20T05:13:40;21.55;;;17.05;;
29916;SDS011;16786;49.466;11.068;2022-08-20T05:16:08;22.42;;;18.15;;
29916;SDS011;16786;49.466;11.068;2022-08-20T05:18:35;25.77;;;18.08;;
29916;SDS011;16786;49.466;11.068;2022-08-20T05:21:02;23.33;;;18.58;;
29916;SDS011;16786;49.466;11.068;2022-08-20T05:23:35;21.35;;;17.42;;
29916;SDS011;16786;49.466;11.068;2022-08-20T05:26:09;24.83;;;19.13;;
29916;SDS011;16786;49.466;11.068;2022-08-20T05:28:37;22.85;;;18.58;;
29916;SDS011;16786;49.466;11.068;2022-08-20T05:31:24;24.92;;;19.55;;
29916;SDS011;16786;49.466;11.068;2022-08-20T05:34:03;26.88;;;20.10;;
29916;SDS011;16786;49.466;11.068;2022-08-20T05:36:38;22.65;;;19.23;;
29916;SDS011;16786;49.466;11.068;2022-08-20T05:39:07;25.27;;;19.92;;
29916;SDS011;16786;49.466;11.068;2022-08-20T05:41:36;25.33;;;20.23;;
29916;SDS011;16786;49.466;11.068;2022-08-20T05:44:04;25.52;;;20.15;;
29916;SDS011;16786;49.466;11.068;2022-08-20T05:46:36;23.67;;;19.80;;
29916;SDS011;16786;49.466;11.068;2022-08-20T05:49:07;24.02;;;19.27;;
29916;SDS011;16786;49.466;11.068;2022-08-20T05:51:35;23.42;;;19.48;;
29916;SDS011;16786;49.466;11.068;2022-08-20T05:54:03;26.75;;;20.73;;
29916;SDS011;16786;49.466;11.068;2022-08-20T05:56:31;29.30;;;22.60;;
29916;SDS011;16786;49.466;11.068;2022-08-20T05:58:59;25.40;;;21.00;;
29916;SDS011;16786;49.466;11.068;2022-08-20T06:01:31;30.58;;;22.02;;
29916;SDS011;16786;49.466;11.068;2022-08-20T06:04:00;23.45;;;18.80;;
29916;SDS011;16786;49.466;11.068;2022-08-20T06:06:46;29.45;;;22.70;;
29916;SDS011;16786;49.466;11.068;2022-08-20T06:09:14;27.55;;;21.17;;
29916;SDS011;16786;49.466;11.068;2022-08-20T06:12:01;32.40;;;23.48;;
29916;SDS011;16786;49.466;11.068;2022-08-20T06:14:31;30.33;;;23.52;;
29916;SDS011;16786;49.466;11.068;2022-08-20T06:19:32;30.85;;;24.65;;
29916;SDS011;16786;49.466;11.068;2022-08-20T06:22:01;27.73;;;22.02;;
29916;SDS011;16786;49.466;11.068;2022-08-20T06:24:47;29.83;;;23.20;;
29916;SDS011;16786;49.466;11.068;2022-08-20T06:27:14;26.60;;;21.20;;
29916;SDS011;16786;49.466;11.068;2022-08-20T06:29:44;25.80;;;20.60;;
29916;SDS011;16786;49.466;11.068;2022-08-20T06:32:12;28.83;;;22.52;;
29916;SDS011;16786;49.466;11.068;2022-08-20T06:34:40;28.95;;;22.13;;
29916;SDS011;16786;49.466;11.068;2022-08-20T06:37:17;26.77;;;21.67;;
29916;SDS011;16786;49.466;11.068;2022-08-20T06:39:47;23.65;;;20.17;;
29916;SDS011;16786;49.466;11.068;2022-08-20T06:42:15;26.00;;;19.90;;
29916;SDS011;16786;49.466;11.068;2022-08-20T06:44:47;25.98;;;20.50;;
29916;SDS011;16786;49.466;11.068;2022-08-20T06:47:16;26.20;;;21.58;;
29916;SDS011;16786;49.466;11.068;2022-08-20T06:49:46;24.38;;;21.02;;
29916;SDS011;16786;49.466;11.068;2022-08-20T06:52:14;27.08;;;21.83;;
29916;SDS011;16786;49.466;11.068;2022-08-20T06:54:43;27.80;;;22.40;;
29916;SDS011;16786;49.466;11.068;2022-08-20T06:57:11;25.73;;;21.33;;
29916;SDS011;16786;49.466;11.068;2022-08-20T06:59:39;25.92;;;20.08;;
29916;SDS011;16786;49.466;11.068;2022-08-20T07:02:07;26.52;;;19.98;;
29916;SDS011;16786;49.466;11.068;2022-08-20T07:04:34;27.92;;;21.42;;
29916;SDS011;16786;49.466;11.068;2022-08-20T07:07:03;23.55;;;20.10;;
29916;SDS011;16786;49.466;11.068;2022-08-20T07:09:30;30.45;;;21.42;;
29916;SDS011;16786;49.466;11.068;2022-08-20T07:11:57;28.58;;;20.38;;
29916;SDS011;16786;49.466;11.068;2022-08-20T07:14:25;25.10;;;21.25;;
29916;SDS011;16786;49.466;11.068;2022-08-20T07:16:52;27.98;;;20.55;;
29916;SDS011;16786;49.466;11.068;2022-08-20T07:19:20;26.15;;;20.80;;
29916;SDS011;16786;49.466;11.068;2022-08-20T07:21:47;26.50;;;20.27;;
29916;SDS011;16786;49.466;11.068;2022-08-20T07:24:14;24.42;;;18.65;;
29916;SDS011;16786;49.466;11.068;2022-08-20T07:26:42;21.75;;;19.45;;
29916;SDS011;16786;49.466;11.068;2022-08-20T07:29:09;22.45;;;19.30;;
29916;SDS011;16786;49.466;11.068;2022-08-20T07:31:38;22.70;;;19.10;;
29916;SDS011;16786;49.466;11.068;2022-08-20T07:34:24;21.33;;;18.60;;
29916;SDS011;16786;49.466;11.068;2022-08-20T07:36:53;21.73;;;18.10;;
29916;SDS011;16786;49.466;11.068;2022-08-20T07:39:24;22.63;;;19.30;;
29916;SDS011;16786;49.466;11.068;2022-08-20T07:41:55;23.90;;;19.10;;
29916;SDS011;16786;49.466;11.068;2022-08-20T07:44:29;23.80;;;18.50;;
29916;SDS011;16786;49.466;11.068;2022-08-20T07:46:57;26.85;;;18.08;;
29916;SDS011;16786;49.466;11.068;2022-08-20T07:49:25;22.55;;;18.67;;
29916;SDS011;16786;49.466;11.068;2022-08-20T07:51:52;22.20;;;18.60;;
29916;SDS011;16786;49.466;11.068;2022-08-20T07:54:20;21.30;;;17.50;;
29916;SDS011;16786;49.466;11.068;2022-08-20T07:56:47;17.83;;;15.93;;
29916;SDS011;16786;49.466;11.068;2022-08-20T07:59:15;21.10;;;17.65;;
29916;SDS011;16786;49.466;11.068;2022-08-20T08:01:42;21.48;;;17.48;;
29916;SDS011;16786;49.466;11.068;2022-08-20T08:04:09;20.48;;;17.38;;
29916;SDS011;16786;49.466;11.068;2022-08-20T08:06:37;19.20;;;16.02;;
29916;SDS011;16786;49.466;11.068;2022-08-20T08:09:12;19.13;;;16.40;;
29916;SDS011;16786;49.466;11.068;2022-08-20T08:11:41;19.13;;;16.13;;
29916;SDS011;16786;49.466;11.068;2022-08-20T08:14:13;20.42;;;17.58;;
29916;SDS011;16786;49.466;11.068;2022-08-20T08:19:12;19.92;;;17.60;;
29916;SDS011;16786;49.466;11.068;2022-08-20T08:21:43;19.80;;;17.50;;
29916;SDS011;16786;49.466;11.068;2022-08-20T08:24:11;18.70;;;16.65;;
29916;SDS011;16786;49.466;11.068;2022-08-20T08:26:46;17.95;;;16.13;;
29916;SDS011;16786;49.466;11.068;2022-08-20T08:29:15;21.30;;;17.00;;
29916;SDS011;16786;49.466;11.068;2022-08-20T08:31:43;18.95;;;16.27;;
29916;SDS011;16786;49.466;11.068;2022-08-20T08:34:11;17.33;;;15.52;;
29916;SDS011;16786;49.466;11.068;2022-08-20T08:36:38;18.95;;;15.90;;
29916;SDS011;16786;49.466;11.068;2022-08-20T08:39:06;19.05;;;15.68;;
29916;SDS011;16786;49.466;11.068;2022-08-20T08:41:39;18.13;;;15.55;;
29916;SDS011;16786;49.466;11.068;2022-08-20T08:44:15;19.15;;;15.45;;
29916;SDS011;16786;49.466;11.068;2022-08-20T08:46:47;18.40;;;15.75;;
29916;SDS011;16786;49.466;11.068;2022-08-20T08:49:21;18.10;;;14.15;;
29916;SDS011;16786;49.466;11.068;2022-08-20T08:52:05;18.67;;;15.82;;
29916;SDS011;16786;49.466;11.068;2022-08-20T08:54:37;17.92;;;15.57;;
29916;SDS011;16786;49.466;11.068;2022-08-20T08:57:09;19.10;;;15.18;;
29916;SDS011;16786;49.466;11.068;2022-08-20T08:59:37;17.95;;;15.23;;
29916;SDS011;16786;49.466;11.068;2022-08-20T09:02:25;21.48;;;16.48;;
29916;SDS011;16786;49.466;11.068;2022-08-20T09:04:54;18.15;;;15.82;;
29916;SDS011;16786;49.466;11.068;2022-08-20T09:07:27;17.60;;;14.95;;
29916;SDS011;16786;49.466;11.068;2022-08-20T09:09:58;18.63;;;16.15;;
29916;SDS011;16786;49.466;11.068;2022-08-20T09:12:27;18.45;;;16.48;;
29916;SDS011;16786;49.466;11.068;2022-08-20T09:14:54;17.02;;;14.45;;
29916;SDS011;16786;49.466;11.068;2022-08-20T09:17:21;15.13;;;13.52;;
29916;SDS011;16786;49.466;11.068;2022-08-20T09:19:49;16.77;;;14.27;;
29916;SDS011;16786;49.466;11.068;2022-08-20T09:22:19;20.77;;;15.00;;
29916;SDS011;16786;49.466;11.068;2022-08-20T09:24:48;17.85;;;15.93;;
29916;SDS011;16786;49.466;11.068;2022-08-20T09:27:16;18.42;;;15.05;;
29916;SDS011;16786;49.466;11.068;2022-08-20T09:29:44;17.13;;;14.45;;
29916;SDS011;16786;49.466;11.068;2022-08-20T09:32:17;20.38;;;15.98;;
29916;SDS011;16786;49.466;11.068;2022-08-20T09:34:48;18.85;;;15.73;;
29916;SDS011;16786;49.466;11.068;2022-08-20T09:37:22;19.63;;;14.23;;
29916;SDS011;16786;49.466;11.068;2022-08-20T09:39:51;19.08;;;16.75;;
29916;SDS011;16786;49.466;11.068;2022-08-20T09:42:22;18.35;;;16.38;;
29916;SDS011;16786;49.466;11.068;2022-08-20T09:44:56;17.38;;;15.10;;
29916;SDS011;16786;49.466;11.068;2022-08-20T09:47:25;16.95;;;14.52;;
29916;SDS011;16786;49.466;11.068;2022-08-20T09:49:53;18.08;;;15.73;;
29916;SDS011;16786;49.466;11.068;2022-08-20T09:52:21;16.48;;;14.75;;
29916;SDS011;16786;49.466;11.068;2022-08-20T09:54:59;18.83;;;16.25;;
29916;SDS011;16786;49.466;11.068;2022-08-20T09:57:28;18.05;;;15.90;;
29916;SDS011;16786;49.466;11.068;2022-08-20T09:59:58;19.15;;;14.88;;
29916;SDS011;16786;49.466;11.068;2022-08-20T10:02:37;18.35;;;13.77;;
29916;SDS011;16786;49.466;11.068;2022-08-20T10:05:05;20.25;;;13.82;;
29916;SDS011;16786;49.466;11.068;2022-08-20T10:10:06;18.02;;;15.32;;
29916;SDS011;16786;49.466;11.068;2022-08-20T10:12:35;17.17;;;15.38;;
29916;SDS011;16786;49.466;11.068;2022-08-20T10:15:02;17.20;;;14.77;;
29916;SDS011;16786;49.466;11.068;2022-08-20T10:17:30;18.80;;;16.20;;
29916;SDS011;16786;49.466;11.068;2022-08-20T10:19:57;25.35;;;16.15;;
29916;SDS011;16786;49.466;11.068;2022-08-20T10:22:25;17.85;;;15.52;;
29916;SDS011;16786;49.466;11.068;2022-08-20T10:24:52;19.98;;;14.95;;
29916;SDS011;16786;49.466;11.068;2022-08-20T10:27:20;17.45;;;14.70;;
29916;SDS011;16786;49.466;11.068;2022-08-20T10:29:47;18.42;;;15.15;;
29916;SDS011;16786;49.466;11.068;2022-08-20T10:32:15;19.02;;;15.27;;
29916;SDS011;16786;49.466;11.068;2022-08-20T10:34:43;16.58;;;14.50;;
29916;SDS011;16786;49.466;11.068;2022-08-20T10:37:19;18.08;;;14.90;;
29916;SDS011;16786;49.466;11.068;2022-08-20T10:39:47;19.58;;;15.07;;
29916;SDS011;16786;49.466;11.068;2022-08-20T10:42:15;17.05;;;15.27;;
29916;SDS011;16786;49.466;11.068;2022-08-20T10:44:42;19.67;;;15.48;;
29916;SDS011;16786;49.466;11.068;2022-08-20T10:47:13;20.52;;;15.13;;
29916;SDS011;16786;49.466;11.068;2022-08-20T10:49:52;18.95;;;15.93;;
29916;SDS011;16786;49.466;11.068;2022-08-20T10:52:21;16.38;;;14.65;;
29916;SDS011;16786;49.466;11.068;2022-08-20T10:54:49;16.23;;;14.45;;
29916;SDS011;16786;49.466;11.068;2022-08-20T10:57:19;19.30;;;15.52;;
29916;SDS011;16786;49.466;11.068;2022-08-20T10:59:49;18.17;;;15.05;;
29916;SDS011;16786;49.466;11.068;2022-08-20T11:02:17;23.20;;;15.10;;
29916;SDS011;16786;49.466;11.068;2022-08-20T11:04:46;16.70;;;14.90;;
29916;SDS011;16786;49.466;11.068;2022-08-20T11:10:10;19.20;;;16.08;;
29916;SDS011;16786;49.466;11.068;2022-08-20T11:12:39;19.17;;;15.10;;
29916;SDS011;16786;49.466;11.068;2022-08-20T11:15:10;19.63;;;15.85;;
29916;SDS011;16786;49.466;11.068;2022-08-20T11:17:38;17.85;;;14.25;;
29916;SDS011;16786;49.466;11.068;2022-08-20T11:20:11;18.98;;;13.40;;
29916;SDS011;16786;49.466;11.068;2022-08-20T11:22:40;19.50;;;14.90;;
29916;SDS011;16786;49.466;11.068;2022-08-20T11:25:07;18.90;;;14.60;;
29916;SDS011;16786;49.466;11.068;2022-08-20T11:27:37;16.50;;;14.77;;
29916;SDS011;16786;49.466;11.068;2022-08-20T11:30:07;16.58;;;14.88;;
29916;SDS011;16786;49.466;11.068;2022-08-20T11:32:37;15.82;;;14.18;;
29916;SDS011;16786;49.466;11.068;2022-08-20T11:35:05;18.33;;;16.33;;
29916;SDS011;16786;49.466;11.068;2022-08-20T11:37:53;16.45;;;14.73;;
29916;SDS011;16786;49.466;11.068;2022-08-20T11:40:22;17.23;;;14.45;;
29916;SDS011;16786;49.466;11.068;2022-08-20T11:42:51;19.45;;;15.50;;
29916;SDS011;16786;49.466;11.068;2022-08-20T11:45:38;21.48;;;15.93;;
29916;SDS011;16786;49.466;11.068;2022-08-20T11:48:05;17.50;;;15.60;;
29916;SDS011;16786;49.466;11.068;2022-08-20T11:50:33;19.95;;;15.95;;
29916;SDS011;16786;49.466;11.068;2022-08-20T11:53:00;16.52;;;14.85;;
29916;SDS011;16786;49.466;11.068;2022-08-20T11:55:27;17.90;;;15.15;;
29916;SDS011;16786;49.466;11.068;2022-08-20T11:57:56;20.20;;;15.95;;
29916;SDS011;16786;49.466;11.068;2022-08-20T12:00:26;16.85;;;15.05;;
29916;SDS011;16786;49.466;11.068;2022-08-20T12:02:59;20.10;;;16.10;;
29916;SDS011;16786;49.466;11.068;2022-08-20T12:05:27;19.20;;;17.13;;
29916;SDS011;16786;49.466;11.068;2022-08-20T12:07:56;18.05;;;16.00;;
29916;SDS011;16786;49.466;11.068;2022-08-20T12:10:25;17.40;;;15.50;;
29916;SDS011;16786;49.466;11.068;2022-08-20T12:12:54;22.52;;;17.98;;
29916;SDS011;16786;49.466;11.068;2022-08-20T12:15:22;20.45;;;17.30;;
29916;SDS011;16786;49.466;11.068;2022-08-20T12:17:51;20.35;;;16.02;;
29916;SDS011;16786;49.466;11.068;2022-08-20T12:20:18;20.50;;;17.70;;
29916;SDS011;16786;49.466;11.068;2022-08-20T12:22:46;21.73;;;17.35;;
29916;SDS011;16786;49.466;11.068;2022-08-20T12:25:13;17.45;;;15.68;;
29916;SDS011;16786;49.466;11.068;2022-08-20T12:27:41;22.23;;;18.05;;
29916;SDS011;16786;49.466;11.068;2022-08-20T12:30:10;20.00;;;17.27;;
29916;SDS011;16786;49.466;11.068;2022-08-20T12:32:39;22.00;;;17.15;;
29916;SDS011;16786;49.466;11.068;2022-08-20T12:35:08;21.98;;;16.60;;
29916;SDS011;16786;49.466;11.068;2022-08-20T12:37:36;21.95;;;15.52;;
29916;SDS011;16786;49.466;11.068;2022-08-20T12:40:05;22.33;;;16.95;;
29916;SDS011;16786;49.466;11.068;2022-08-20T12:42:35;21.58;;;17.13;;
29916;SDS011;16786;49.466;11.068;2022-08-20T12:45:03;22.13;;;17.85;;
29916;SDS011;16786;49.466;11.068;2022-08-20T12:47:32;20.73;;;16.13;;
29916;SDS011;16786;49.466;11.068;2022-08-20T12:50:04;20.70;;;16.13;;
29916;SDS011;16786;49.466;11.068;2022-08-20T12:52:33;16.77;;;14.98;;
29916;SDS011;16786;49.466;11.068;2022-08-20T12:55:02;20.88;;;15.25;;
29916;SDS011;16786;49.466;11.068;2022-08-20T12:57:32;23.60;;;15.13;;
29916;SDS011;16786;49.466;11.068;2022-08-20T13:02:38;23.63;;;15.30;;
29916;SDS011;16786;49.466;11.068;2022-08-20T13:05:07;19.45;;;14.40;;
29916;SDS011;16786;49.466;11.068;2022-08-20T13:07:36;13.88;;;10.73;;
29916;SDS011;16786;49.466;11.068;2022-08-20T13:10:05;15.15;;;10.63;;
29916;SDS011;16786;49.466;11.068;2022-08-20T13:12:34;15.07;;;11.50;;
29916;SDS011;16786;49.466;11.068;2022-08-20T13:15:02;14.50;;;12.20;;
29916;SDS011;16786;49.466;11.068;2022-08-20T13:17:30;16.70;;;12.00;;
29916;SDS011;16786;49.466;11.068;2022-08-20T13:20:06;14.75;;;13.25;;
29916;SDS011;16786;49.466;11.068;2022-08-20T13:22:35;16.25;;;13.55;;
29916;SDS011;16786;49.466;11.068;2022-08-20T13:25:03;18.83;;;15.10;;
29916;SDS011;16786;49.466;11.068;2022-08-20T13:27:32;16.25;;;13.90;;
29916;SDS011;16786;49.466;11.068;2022-08-20T13:29:59;17.90;;;13.73;;
29916;SDS011;16786;49.466;11.068;2022-08-20T13:32:26;18.65;;;12.32;;
29916;SDS011;16786;49.466;11.068;2022-08-20T13:34:54;12.05;;;9.48;;
29916;SDS011;16786;49.466;11.068;2022-08-20T13:37:22;11.07;;;9.18;;
29916;SDS011;16786;49.466;11.068;2022-08-20T13:39:52;10.60;;;8.85;;
29916;SDS011;16786;49.466;11.068;2022-08-20T13:42:20;8.50;;;7.57;;
29916;SDS011;16786;49.466;11.068;2022-08-20T13:44:48;9.70;;;8.13;;
29916;SDS011;16786;49.466;11.068;2022-08-20T13:47:21;10.48;;;9.15;;
29916;SDS011;16786;49.466;11.068;2022-08-20T13:50:05;11.63;;;8.98;;
29916;SDS011;16786;49.466;11.068;2022-08-20T13:52:41;10.00;;;8.90;;
29916;SDS011;16786;49.466;11.068;2022-08-20T13:55:11;11.95;;;8.45;;
29916;SDS011;16786;49.466;11.068;2022-08-20T13:57:40;9.97;;;8.97;;
29916;SDS011;16786;49.466;11.068;2022-08-20T14:00:09;9.63;;;8.55;;
29916;SDS011;16786;49.466;11.068;2022-08-20T14:02:42;9.30;;;8.32;;
29916;SDS011;16786;49.466;11.068;2022-08-20T14:05:10;9.25;;;8.35;;
29916;SDS011;16786;49.466;11.068;2022-08-20T14:07:44;9.55;;;8.13;;
29916;SDS011;16786;49.466;11.068;2022-08-20T14:10:15;9.10;;;7.50;;
29916;SDS011;16786;49.466;11.068;2022-08-20T14:15:14;9.05;;;8.13;;
29916;SDS011;16786;49.466;11.068;2022-08-20T14:17:47;9.60;;;8.68;;
29916;SDS011;16786;49.466;11.068;2022-08-20T14:20:19;9.23;;;8.32;;
29916;SDS011;16786;49.466;11.068;2022-08-20T14:22:49;14.05;;;9.77;;
29916;SDS011;16786;49.466;11.068;2022-08-20T14:25:17;12.82;;;10.52;;
29916;SDS011;16786;49.466;11.068;2022-08-20T14:27:46;12.05;;;10.77;;
29916;SDS011;16786;49.466;11.068;2022-08-20T14:30:14;13.23;;;11.23;;
29916;SDS011;16786;49.466;11.068;2022-08-20T14:32:43;14.50;;;12.48;;
29916;SDS011;16786;49.466;11.068;2022-08-20T14:35:11;18.08;;;12.65;;
29916;SDS011;16786;49.466;11.068;2022-08-20T14:37:41;14.13;;;12.40;;
29916;SDS011;16786;49.466;11.068;2022-08-20T14:42:40;15.73;;;12.38;;
29916;SDS011;16786;49.466;11.068;2022-08-20T14:45:11;15.70;;;12.70;;
29916;SDS011;16786;49.466;11.068;2022-08-20T14:47:45;14.75;;;11.60;;
29916;SDS011;16786;49.466;11.068;2022-08-20T14:50:24;12.32;;;10.93;;
29916;SDS011;16786;49.466;11.068;2022-08-20T14:52:57;13.30;;;10.35;;
29916;SDS011;16786;49.466;11.068;2022-08-20T14:55:27;11.10;;;9.90;;
29916;SDS011;16786;49.466;11.068;2022-08-20T14:57:57;12.65;;;8.60;;
29916;SDS011;16786;49.466;11.068;2022-08-20T15:00:26;9.10;;;7.75;;
29916;SDS011;16786;49.466;11.068;2022-08-20T15:02:56;12.07;;;7.32;;